Time;durP1;ratioP1;P1;durP2;ratioP2;P2;SDS_P1;SDS_P2;PMS_P1;PMS_P2;Temp;Humidity;BMP_temperature;BMP_pressure;BME280_temperature;BME280_humidity;BME280_pressure;Samples;Min_cycle;Max_cycle;Signal;HPM_P1;HPM_P2
2023/04/03 00:01:42;;;;;;;;;;;;;;;;;;5043250;28;43954;-86
2023/04/03 00:04:08;;;;;;;;;;;;;;;;;;5044594;28;43253;-86
2023/04/03 00:06:34;;;;;;;;;;;;;;;;;;5043038;28;43016;-86
2023/04/03 00:09:00;;;;;;;;;;;;;;;;;;5044967;28;42907;-86
2023/04/03 00:11:26;;;;;;;;;;;;;;;;;;5043638;28;43831;-87
2023/04/03 00:13:52;;;;;;;;;;;;;;;;;;5026000;28;42928;-87
2023/04/03 00:16:18;;;;;;;;;;;;;;;;;;5024246;28;44558;-86
2023/04/03 00:18:44;;;;;;;;;;;;;;;;;;5044671;28;42840;-86
2023/04/03 00:21:10;;;;;;;;;;;;;;;;;;5044306;28;43556;-86
2023/04/03 00:23:36;;;;;;;;;;;;;;;;;;5044435;28;43031;-87
2023/04/03 00:26:02;;;;;;;;;;;;;;;;;;5043658;28;43346;-86
2023/04/03 00:28:28;;;;;;;;;;;;;;;;;;5044215;28;42918;-87
2023/04/03 00:30:54;;;;;;;;;;;;;;;;;;5042949;28;43702;-87
2023/04/03 00:33:24;;;;;;;;;;;;;;;;;;5025547;28;43163;-86
2023/04/03 00:35:50;;;;;;;;;;;;;;;;;;5043115;28;43041;-86
2023/04/03 00:38:16;;;;;;;;;;;;;;;;;;5043399;28;43779;-86
2023/04/03 00:40:42;;;;;;;;;;;;;;;;;;5030676;28;43070;-86
2023/04/03 00:43:07;;;;;;;;;;;;;;;;;;5035404;28;42892;-87
2023/04/03 00:45:33;;;;;;;;;;;;;;;;;;5023182;28;43651;-86
2023/04/03 00:47:59;;;;;;;;;;;;;;;;;;5024142;28;42937;-87
2023/04/03 00:50:25;;;;;;;;;;;;;;;;;;5022964;28;42983;-87
2023/04/03 00:52:51;;;;;;;;;;;;;;;;;;5035662;28;42949;-87
2023/04/03 00:55:17;;;;;;;;;;;;;;;;;;5023833;28;43060;-87
2023/04/03 00:57:43;;;;;;;;;;;;;;;;;;5023343;28;42917;-87
2023/04/03 01:00:09;;;;;;;;;;;;;;;;;;5023969;28;43074;-87
2023/04/03 01:02:35;;;;;;;;;;;;;;;;;;5029213;28;43056;-86
2023/04/03 01:05:01;;;;;;;;;;;;;;;;;;5031012;28;43025;-87
2023/04/03 01:07:26;;;;;;;;;;;;;;;;;;5038865;28;43202;-87
2023/04/03 01:09:52;;;;;;;;;;;;;;;;;;5043673;28;43001;-85
2023/04/03 01:12:18;;;;;;;;;;;;;;;;;;5026483;28;42954;-85
2023/04/03 01:14:45;;;;;;;;;;;;;;;;;;5027260;28;43441;-85
2023/04/03 01:17:11;;;;;;;;;;;;;;;;;;5026643;28;42906;-85
2023/04/03 01:19:40;;;;;;;;;;;;;;;;;;5008793;28;43940;-85
2023/04/03 01:22:07;;;;;;;;;;;;;;;;;;5009172;28;43039;-85
2023/04/03 01:24:33;;;;;;;;;;;;;;;;;;5026595;28;43325;-85
2023/04/03 01:26:59;;;;;;;;;;;;;;;;;;5026856;28;42932;-85
2023/04/03 01:29:25;;;;;;;;;;;;;;;;;;5026450;28;42921;-85
2023/04/03 01:31:51;;;;;;;;;;;;;;;;;;5026114;28;42868;-85
2023/04/03 01:34:16;;;;;;;;;;;;;;;;;;5025881;28;44072;-85
2023/04/03 01:36:42;;;;;;;;;;;;;;;;;;5025757;28;42994;-84
2023/04/03 01:39:08;;;;;;;;;;;;;;;;;;5025160;28;43624;-85
2023/04/03 01:41:34;;;;;;;;;;;;;;;;;;5045642;28;43230;-85
2023/04/03 01:44:00;;;;;;;;;;;;;;;;;;5047131;28;43001;-84
2023/04/03 01:46:26;;;;;;;;;;;;;;;;;;5046425;28;43302;-86
2023/04/03 01:48:52;;;;;;;;;;;;;;;;;;5045708;28;43563;-84
2023/04/03 01:51:18;;;;;;;;;;;;;;;;;;5046886;28;42911;-85
2023/04/03 01:53:44;;;;;;;;;;;;;;;;;;5059439;28;43833;-85
2023/04/03 01:56:10;;;;;;;;;;;;;;;;;;5066519;28;42908;-85
2023/04/03 01:58:35;;;;;;;;;;;;;;;;;;5050237;28;43908;-85
2023/04/03 02:01:02;;;;;;;;;;;;;;;;;;5046566;28;42904;-85
2023/04/03 02:03:27;;;;;;;;;;;;;;;;;;5046463;28;43666;-84
2023/04/03 02:05:53;;;;;;;;;;;;;;;;;;5045685;28;43022;-85
2023/04/03 02:08:19;;;;;;;;;;;;;;;;;;5045552;28;43417;-85
2023/04/03 02:10:45;;;;;;;;;;;;;;;;;;5028207;28;43008;-85
2023/04/03 02:13:11;;;;;;;;;;;;;;;;;;5046264;28;42773;-85
2023/04/03 02:15:37;;;;;;;;;;;;;;;;;;5045764;28;42927;-85
2023/04/03 02:18:03;;;;;;;;;;;;;;;;;;5026983;28;45641;-85
2023/04/03 02:20:29;;;;;;;;;;;;;;;;;;5046287;28;42984;-85
2023/04/03 02:22:55;;;;;;;;;;;;;;;;;;5045297;28;42967;-85
2023/04/03 02:25:21;;;;;;;;;;;;;;;;;;5045866;28;43093;-86
2023/04/03 02:27:47;;;;;;;;;;;;;;;;;;5044855;28;43513;-85
2023/04/03 02:30:14;;;;;;;;;;;;;;;;;;5047354;28;43011;-85
2023/04/03 02:32:40;;;;;;;;;;;;;;;;;;5047302;28;44647;-85
2023/04/03 02:35:06;;;;;;;;;;;;;;;;;;5056010;28;43089;-85
2023/04/03 02:37:32;;;;;;;;;;;;;;;;;;5045734;28;43357;-86
2023/04/03 02:39:58;;;;;;;;;;;;;;;;;;5038647;28;42926;-85
2023/04/03 02:42:24;;;;;;;;;;;;;;;;;;5024357;28;43344;-86
2023/04/03 02:44:50;;;;;;;;;;;;;;;;;;5024996;28;44213;-86
2023/04/03 02:47:16;;;;;;;;;;;;;;;;;;5028862;28;43045;-85
2023/04/03 02:49:44;;;;;;;;;;;;;;;;;;5025228;28;43481;-85
2023/04/03 02:52:10;;;;;;;;;;;;;;;;;;5022657;28;42943;-85
2023/04/03 02:54:36;;;;;;;;;;;;;;;;;;5024884;28;42945;-86
2023/04/03 02:57:02;;;;;;;;;;;;;;;;;;5028183;28;42894;-86
2023/04/03 02:59:28;;;;;;;;;;;;;;;;;;5025216;28;42988;-86
2023/04/03 03:01:55;;;;;;;;;;;;;;;;;;5025150;28;43107;-87
2023/04/03 03:09:32;;;;;;;;;;;;;;;;;;5024607;23;43353;-87
2023/04/03 03:11:58;;;;;;;;;;;;;;;;;;5024544;28;42932;-86
2023/04/03 03:14:24;;;;;;;;;;;;;;;;;;5024929;28;43009;-87
2023/04/03 03:16:50;;;;;;;;;;;;;;;;;;5014913;28;42898;-87
2023/04/03 03:19:16;;;;;;;;;;;;;;;;;;5006292;28;42846;-86
2023/04/03 03:21:42;;;;;;;;;;;;;;;;;;5024968;28;42886;-86
2023/04/03 03:24:08;;;;;;;;;;;;;;;;;;5023956;28;43962;-87
2023/04/03 03:26:34;;;;;;;;;;;;;;;;;;5006134;28;43665;-87
2023/04/03 03:29:00;;;;;;;;;;;;;;;;;;5023157;28;43122;-87
2023/04/03 03:31:25;;;;;;;;;;;;;;;;;;5024832;28;43886;-87
2023/04/03 03:33:51;;;;;;;;;;;;;;;;;;5024703;28;43183;-87
2023/04/03 03:36:17;;;;;;;;;;;;;;;;;;5023951;28;43928;-87
2023/04/03 03:38:43;;;;;;;;;;;;;;;;;;5025113;28;43087;-87
2023/04/03 03:41:09;;;;;;;;;;;;;;;;;;5025223;28;42965;-87
2023/04/03 03:43:35;;;;;;;;;;;;;;;;;;5023982;28;42959;-86
2023/04/03 03:46:01;;;;;;;;;;;;;;;;;;5023624;28;43368;-86
2023/04/03 03:48:27;;;;;;;;;;;;;;;;;;5029628;28;43008;-87
2023/04/03 03:50:52;;;;;;;;;;;;;;;;;;5019295;28;43930;-87
2023/04/03 03:53:19;;;;;;;;;;;;;;;;;;5022260;28;43175;-86
2023/04/03 03:55:45;;;;;;;;;;;;;;;;;;5024206;28;42876;-87
2023/04/03 03:58:10;;;;;;;;;;;;;;;;;;5024140;28;43001;-85
2023/04/03 04:00:36;;;;;;;;;;;;;;;;;;5024644;28;42996;-85
2023/04/03 04:03:02;;;;;;;;;;;;;;;;;;5006660;28;43523;-84
2023/04/03 04:05:28;;;;;;;;;;;;;;;;;;5024345;28;44032;-86
2023/04/03 04:07:54;;;;;;;;;;;;;;;;;;5024416;28;43091;-85
2023/04/03 04:10:20;;;;;;;;;;;;;;;;;;5023837;28;42944;-86
2023/04/03 04:12:46;;;;;;;;;;;;;;;;;;5022964;28;43949;-85
2023/04/03 04:15:12;;;;;;;;;;;;;;;;;;5023544;28;43075;-86
2023/04/03 04:17:38;;;;;;;;;;;;;;;;;;5024830;28;43027;-85
2023/04/03 04:20:04;;;;;;;;;;;;;;;;;;5020674;28;43034;-85
2023/04/03 04:22:30;;;;;;;;;;;;;;;;;;5016409;28;43321;-87
2023/04/03 04:24:56;;;;;;;;;;;;;;;;;;5010363;28;43396;-86
2023/04/03 04:27:22;;;;;;;;;;;;;;;;;;5022830;28;43113;-86
2023/04/03 04:29:48;;;;;;;;;;;;;;;;;;5019031;28;43652;-85
2023/04/03 04:32:14;;;;;;;;;;;;;;;;;;5021974;28;42953;-86
2023/04/03 04:34:40;;;;;;;;;;;;;;;;;;5024107;28;42951;-86
2023/04/03 04:37:06;;;;;;;;;;;;;;;;;;5018059;28;42900;-83
2023/04/03 04:39:32;;;;;;;;;;;;;;;;;;5021235;28;43004;-83
2023/04/03 04:41:57;;;;;;;;;;;;;;;;;;5020348;28;42945;-83
2023/04/03 04:44:23;;;;;;;;;;;;;;;;;;5018403;28;42982;-83
2023/04/03 04:46:49;;;;;;;;;;;;;;;;;;5018442;28;42984;-83
2023/04/03 04:49:15;;;;;;;;;;;;;;;;;;5019954;28;42969;-84
2023/04/03 04:51:41;;;;;;;;;;;;;;;;;;5015810;28;42972;-82
2023/04/03 04:54:07;;;;;;;;;;;;;;;;;;5011597;28;43138;-82
2023/04/03 04:56:33;;;;;;;;;;;;;;;;;;5019944;28;42943;-82
2023/04/03 04:58:59;;;;;;;;;;;;;;;;;;5023105;28;42882;-82
2023/04/03 05:01:24;;;;;;;;;;;;;;;;;;5023045;28;42993;-82
2023/04/03 05:03:51;;;;;;;;;;;;;;;;;;5022537;28;42908;-82
2023/04/03 05:06:16;;;;;;;;;;;;;;;;;;5004199;28;42818;-82
2023/04/03 05:08:42;;;;;;;;;;;;;;;;;;5023509;28;43419;-82
2023/04/03 05:11:08;;;;;;;;;;;;;;;;;;5022979;28;43070;-82
2023/04/03 05:13:34;;;;;;;;;;;;;;;;;;5017260;28;43422;-81
2023/04/03 05:16:00;;;;;;;;;;;;;;;;;;5019855;28;42993;-83
2023/04/03 05:18:26;;;;;;;;;;;;;;;;;;5017836;28;44057;-84
2023/04/03 05:20:52;;;;;;;;;;;;;;;;;;5006853;28;43091;-84
2023/04/03 05:23:18;;;;;;;;;;;;;;;;;;5023054;28;43726;-83
2023/04/03 05:25:45;;;;;;;;;;;;;;;;;;5022648;28;42904;-83
2023/04/03 05:28:10;;;;;;;;;;;;;;;;;;5022711;28;42873;-86
2023/04/03 05:30:36;;;;;;;;;;;;;;;;;;5023354;28;43156;-86
2023/04/03 05:33:02;;;;;;;;;;;;;;;;;;5023375;28;43070;-84
2023/04/03 05:35:28;;;;;;;;;;;;;;;;;;5022250;28;43010;-82
2023/04/03 05:37:54;;;;;;;;;;;;;;;;;;5022726;28;44068;-84
2023/04/03 05:40:20;;;;;;;;;;;;;;;;;;5023221;28;42978;-83
2023/04/03 05:42:46;;;;;;;;;;;;;;;;;;5023913;28;42828;-83
2023/04/03 05:45:12;;;;;;;;;;;;;;;;;;5022870;28;42948;-83
2023/04/03 05:47:38;;;;;;;;;;;;;;;;;;5023575;28;42992;-83
2023/04/03 05:50:07;;;;;;;;;;;;;;;;;;5021560;28;42706;-83
2023/04/03 05:52:32;;;;;;;;;;;;;;;;;;5001275;28;45401;-84
2023/04/03 05:54:58;;;;;;;;;;;;;;;;;;5026960;28;42926;-83
2023/04/03 05:57:24;;;;;;;;;;;;;;;;;;5058504;22;43548;-83
2023/04/03 05:59:50;;;;;;;;;;;;;;;;;;5038083;28;43201;-84
2023/04/03 06:02:16;;;;;;;;;;;;;;;;;;5025182;28;45640;-84
2023/04/03 06:04:42;;;;;;;;;;;;;;;;;;5026908;28;42781;-82
2023/04/03 06:07:08;;;;;;;;;;;;;;;;;;5026664;28;42910;-82
2023/04/03 06:09:34;;;;;;;;;;;;;;;;;;5027017;28;42945;-84
2023/04/03 06:12:00;;;;;;;;;;;;;;;;;;5025212;28;44423;-84
2023/04/03 06:14:26;;;;;;;;;;;;;;;;;;5027336;28;43042;-83
2023/04/03 06:16:52;;;;;;;;;;;;;;;;;;5027503;28;43462;-84
2023/04/03 06:19:18;;;;;;;;;;;;;;;;;;5032159;28;43068;-84
2023/04/03 06:21:44;;;;;;;;;;;;;;;;;;5046592;28;43526;-84
2023/04/03 06:24:10;;;;;;;;;;;;;;;;;;5046330;28;43012;-83
2023/04/03 06:26:36;;;;;;;;;;;;;;;;;;5047045;28;43410;-83
2023/04/03 06:29:02;;;;;;;;;;;;;;;;;;5046416;28;42970;-84
2023/04/03 06:31:28;;;;;;;;;;;;;;;;;;5046234;28;43488;-84
2023/04/03 06:33:54;;;;;;;;;;;;;;;;;;5046036;28;42880;-84
2023/04/03 06:36:20;;;;;;;;;;;;;;;;;;5028640;28;44009;-84
2023/04/03 06:38:46;;;;;;;;;;;;;;;;;;5045687;28;43079;-84
2023/04/03 06:41:12;;;;;;;;;;;;;;;;;;5046283;28;42956;-84
2023/04/03 06:43:38;;;;;;;;;;;;;;;;;;5045920;28;42945;-84
2023/04/03 06:46:04;;;;;;;;;;;;;;;;;;5045420;28;42941;-84
2023/04/03 06:48:30;;;;;;;;;;;;;;;;;;5045548;28;43524;-84
2023/04/03 06:50:56;;;;;;;;;;;;;;;;;;5045460;28;42762;-84
2023/04/03 06:53:22;;;;;;;;;;;;;;;;;;5046037;28;42881;-83
2023/04/03 06:55:48;;;;;;;;;;;;;;;;;;5050604;28;42998;-84
2023/04/03 06:58:15;;;;;;;;;;;;;;;;;;5075102;28;43095;-84
2023/04/03 07:00:41;;;;;;;;;;;;;;;;;;5077657;28;42827;-83
2023/04/03 07:03:06;;;;;;;;;;;;;;;;;;5066258;28;42942;-84
2023/04/03 07:05:32;;;;;;;;;;;;;;;;;;5085640;28;42977;-85
2023/04/03 07:07:58;;;;;;;;;;;;;;;;;;5084619;28;42941;-83
2023/04/03 07:10:24;;;;;;;;;;;;;;;;;;5085759;28;42824;-84
2023/04/03 07:12:50;;;;;;;;;;;;;;;;;;5057460;28;42941;-83
2023/04/03 07:15:16;;;;;;;;;;;;;;;;;;5045397;28;44447;-84
2023/04/03 07:17:42;;;;;;;;;;;;;;;;;;5084900;28;42924;-84
2023/04/03 07:20:08;;;;;;;;;;;;;;;;;;5085361;28;42847;-84
2023/04/03 07:22:34;;;;;;;;;;;;;;;;;;5079791;28;42880;-83
2023/04/03 07:25:00;;;;;;;;;;;;;;;;;;5072146;28;43858;-84
2023/04/03 07:27:26;;;;;;;;;;;;;;;;;;5084560;28;43094;-84
2023/04/03 07:29:52;;;;;;;;;;;;;;;;;;5085426;28;44455;-84
2023/04/03 07:32:18;;;;;;;;;;;;;;;;;;5084989;28;42963;-84
2023/04/03 07:34:44;;;;;;;;;;;;;;;;;;5073163;28;43496;-83
2023/04/03 07:37:10;;;;;;;;;;;;;;;;;;5076330;28;42953;-84
2023/04/03 07:39:36;;;;;;;;;;;;;;;;;;5077534;28;42883;-84
2023/04/03 07:42:02;;;;;;;;;;;;;;;;;;5084580;28;42926;-84
2023/04/03 07:44:28;;;;;;;;;;;;;;;;;;5067177;28;43502;-84
2023/04/03 07:46:55;;;;;;;;;;;;;;;;;;5085245;28;42852;-84
2023/04/03 07:49:22;;;;;;;;;;;;;;;;;;5072761;28;42991;-84
2023/04/03 07:51:48;;;;;;;;;;;;;;;;;;5064558;28;42911;-83
2023/04/03 07:54:14;;;;;;;;;;;;;;;;;;5073365;28;42962;-84
2023/04/03 07:56:42;;;;;;;;;;;;;;;;;;5049761;28;42972;-85
2023/04/03 07:59:08;;;;;;;;;;;;;;;;;;5067768;28;42966;-85
2023/04/03 08:01:34;;;;;;;;;;;;;;;;;;5062488;28;42966;-83
2023/04/03 08:04:00;;;;;;;;;;;;;;;;;;5047031;28;42968;-83
2023/04/03 08:06:26;;;;;;;;;;;;;;;;;;5047516;28;43023;-86
2023/04/03 08:08:52;;;;;;;;;;;;;;;;;;5068368;28;43132;-88
2023/04/03 08:11:18;;;;;;;;;;;;;;;;;;5067302;28;43055;-87
2023/04/03 08:13:44;;;;;;;;;;;;;;;;;;5063600;28;42903;-89
2023/04/03 08:16:10;;;;;;;;;;;;;;;;;;5065614;28;43371;-86
2023/04/03 08:18:36;;;;;;;;;;;;;;;;;;5064563;28;43037;-86
2023/04/03 08:21:02;;;;;;;;;;;;;;;;;;5070952;28;43336;-82
2023/04/03 08:23:28;;;;;;;;;;;;;;;;;;5070968;28;42904;-88
2023/04/03 08:25:54;;;;;;;;;;;;;;;;;;5064182;28;42890;-88
2023/04/03 08:28:20;;;;;;;;;;;;;;;;;;5063365;28;43877;-87
2023/04/03 08:30:46;;;;;;;;;;;;;;;;;;5049216;28;43093;-87
2023/04/03 08:33:12;;;;;;;;;;;;;;;;;;5062508;28;43969;-87
2023/04/03 08:35:38;;;;;;;;;;;;;;;;;;5045299;28;42857;-88
2023/04/03 08:38:04;;;;;;;;;;;;;;;;;;5062941;28;42898;-87
2023/04/03 08:40:30;;;;;;;;;;;;;;;;;;5061285;28;43025;-88
2023/04/03 08:42:56;;;;;;;;;;;;;;;;;;5034587;28;44284;-87
2023/04/03 08:45:22;;;;;;;;;;;;;;;;;;5071068;28;42836;-85
2023/04/03 08:47:47;;;;;;;;;;;;;;;;;;5056030;28;44255;-86
2023/04/03 08:50:13;;;;;;;;;;;;;;;;;;5055310;28;43039;-86
2023/04/03 08:52:39;;;;;;;;;;;;;;;;;;5065987;28;43680;-86
2023/04/03 08:55:05;;;;;;;;;;;;;;;;;;5065150;28;43070;-85
2023/04/03 08:57:32;;;;;;;;;;;;;;;;;;5060317;28;43561;-85
2023/04/03 08:59:58;;;;;;;;;;;;;;;;;;5043333;28;43154;-86
2023/04/03 09:02:24;;;;;;;;;;;;;;;;;;5069838;28;43497;-86
2023/04/03 09:04:50;;;;;;;;;;;;;;;;;;5053606;28;42881;-87
2023/04/03 09:07:16;;;;;;;;;;;;;;;;;;5056716;28;43051;-86
2023/04/03 09:09:42;;;;;;;;;;;;;;;;;;5072819;28;43023;-80
2023/04/03 09:12:09;;;;;;;;;;;;;;;;;;5058903;28;43470;-83
2023/04/03 09:14:35;;;;;;;;;;;;;;;;;;5075791;28;43036;-83
2023/04/03 09:17:01;;;;;;;;;;;;;;;;;;5078836;28;43109;-84
2023/04/03 09:19:27;;;;;;;;;;;;;;;;;;5073641;28;42999;-84
2023/04/03 09:21:53;;;;;;;;;;;;;;;;;;5063579;28;42973;-83
2023/04/03 09:24:19;;;;;;;;;;;;;;;;;;5074447;28;42946;-83
2023/04/03 09:26:45;;;;;;;;;;;;;;;;;;5077033;27;43095;-83
2023/04/03 09:29:11;;;;;;;;;;;;;;;;;;5054994;28;43102;-83
2023/04/03 09:31:37;;;;;;;;;;;;;;;;;;5078863;28;42904;-83
2023/04/03 09:34:03;;;;;;;;;;;;;;;;;;5054312;28;43579;-82
2023/04/03 09:36:29;;;;;;;;;;;;;;;;;;5075751;28;43096;-83
2023/04/03 09:38:55;;;;;;;;;;;;;;;;;;5081753;28;42921;-83
2023/04/03 09:41:21;;;;;;;;;;;;;;;;;;5058452;28;43088;-84
2023/04/03 09:43:47;;;;;;;;;;;;;;;;;;5083394;28;42935;-83
2023/04/03 09:46:13;;;;;;;;;;;;;;;;;;5083163;28;43057;-84
2023/04/03 09:48:39;;;;;;;;;;;;;;;;;;5064442;28;43231;-84
2023/04/03 09:51:05;;;;;;;;;;;;;;;;;;5071810;28;43419;-84
2023/04/03 09:53:30;;;;;;;;;;;;;;;;;;5071909;28;43006;-84
2023/04/03 09:55:56;;;;;;;;;;;;;;;;;;5085690;28;42959;-84
2023/04/03 09:58:22;;;;;;;;;;;;;;;;;;5077896;28;42862;-84
2023/04/03 10:00:48;;;;;;;;;;;;;;;;;;5067722;28;42835;-84
2023/04/03 10:03:14;;;;;;;;;;;;;;;;;;5076976;28;42993;-83
2023/04/03 10:05:40;;;;;;;;;;;;;;;;;;5081179;28;43096;-84
2023/04/03 10:08:06;;;;;;;;;;;;;;;;;;5079900;28;42895;-83
2023/04/03 10:10:32;;;;;;;;;;;;;;;;;;5078824;28;43569;-83
2023/04/03 10:12:58;;;;;;;;;;;;;;;;;;5058950;28;43044;-84
2023/04/03 10:15:23;;;;;;;;;;;;;;;;;;5064845;28;43457;-84
2023/04/03 10:17:50;;;;;;;;;;;;;;;;;;5065265;28;43092;-84
2023/04/03 10:20:16;;;;;;;;;;;;;;;;;;5077931;28;42933;-84
2023/04/03 10:22:42;;;;;;;;;;;;;;;;;;5068329;28;42803;-84
2023/04/03 10:25:08;;;;;;;;;;;;;;;;;;5069016;28;42919;-84
2023/04/03 10:27:34;;;;;;;;;;;;;;;;;;5067855;28;43057;-84
2023/04/03 10:30:00;;;;;;;;;;;;;;;;;;5068647;28;44551;-84
2023/04/03 10:32:26;;;;;;;;;;;;;;;;;;5067775;28;42800;-83
2023/04/03 10:34:52;;;;;;;;;;;;;;;;;;5068933;28;44612;-84
2023/04/03 10:37:18;;;;;;;;;;;;;;;;;;5066949;27;43006;-84
2023/04/03 10:39:44;;;;;;;;;;;;;;;;;;5060185;28;44583;-84
2023/04/03 10:42:10;;;;;;;;;;;;;;;;;;5070407;28;42888;-85
2023/04/03 10:44:36;;;;;;;;;;;;;;;;;;5071708;28;43612;-84
2023/04/03 10:47:02;;;;;;;;;;;;;;;;;;5045638;28;43596;-85
2023/04/03 10:49:28;;;;;;;;;;;;;;;;;;5078487;28;43655;-84
2023/04/03 10:51:54;;;;;;;;;;;;;;;;;;5066481;28;42927;-84
2023/04/03 10:54:20;;;;;;;;;;;;;;;;;;5067983;28;43359;-85
2023/04/03 10:56:46;;;;;;;;;;;;;;;;;;5058531;28;43062;-85
2023/04/03 10:59:12;;;;;;;;;;;;;;;;;;5069327;28;44125;-85
2023/04/03 11:01:38;;;;;;;;;;;;;;;;;;5064557;28;43048;-84
2023/04/03 11:04:04;;;;;;;;;;;;;;;;;;5058936;28;44158;-85
2023/04/03 11:06:29;;;;;;;;;;;;;;;;;;5051526;28;43726;-85
2023/04/03 11:08:56;;;;;;;;;;;;;;;;;;5067667;28;42991;-85
2023/04/03 11:11:22;;;;;;;;;;;;;;;;;;5066884;28;42863;-85
2023/04/03 11:13:48;;;;;;;;;;;;;;;;;;5067592;28;42838;-84
2023/04/03 11:16:14;;;;;;;;;;;;;;;;;;5066496;28;43093;-84
2023/04/03 11:18:40;;;;;;;;;;;;;;;;;;5048908;28;42905;-85
2023/04/03 11:21:06;;;;;;;;;;;;;;;;;;5067135;28;42950;-84
2023/04/03 11:23:32;;;;;;;;;;;;;;;;;;5061609;28;43422;-84
2023/04/03 11:25:58;;;;;;;;;;;;;;;;;;5056164;28;42938;-85
2023/04/03 11:28:24;;;;;;;;;;;;;;;;;;5066711;28;43649;-84
2023/04/03 11:30:50;;;;;;;;;;;;;;;;;;5056026;28;43288;-84
2023/04/03 11:33:17;;;;;;;;;;;;;;;;;;5065083;28;42821;-84
2023/04/03 11:35:43;;;;;;;;;;;;;;;;;;5043177;28;43079;-85
2023/04/03 11:38:09;;;;;;;;;;;;;;;;;;5063672;28;43028;-84
2023/04/03 11:40:34;;;;;;;;;;;;;;;;;;5061427;28;43882;-84
2023/04/03 11:43:00;;;;;;;;;;;;;;;;;;5050544;28;43685;-84
2023/04/03 11:45:26;;;;;;;;;;;;;;;;;;5065255;28;43181;-83
2023/04/03 11:47:52;;;;;;;;;;;;;;;;;;5079256;27;43028;-84
2023/04/03 11:50:18;;;;;;;;;;;;;;;;;;5066119;28;43043;-84
2023/04/03 11:52:45;;;;;;;;;;;;;;;;;;5075561;28;43706;-85
2023/04/03 11:55:11;;;;;;;;;;;;;;;;;;5062484;28;43059;-85
2023/04/03 11:57:36;;;;;;;;;;;;;;;;;;5072928;28;42997;-83
2023/04/03 12:00:03;;;;;;;;;;;;;;;;;;5078045;28;44073;-84
2023/04/03 12:02:29;;;;;;;;;;;;;;;;;;5068883;28;44572;-84
2023/04/03 12:04:55;;;;;;;;;;;;;;;;;;5071011;28;42938;-84
2023/04/03 12:07:21;;;;;;;;;;;;;;;;;;5057113;28;42993;-82
2023/04/03 12:09:47;;;;;;;;;;;;;;;;;;5048842;28;43044;-87
2023/04/03 12:12:13;;;;;;;;;;;;;;;;;;5049361;28;43539;-87
2023/04/03 12:14:40;;;;;;;;;;;;;;;;;;5065115;28;43009;-88
2023/04/03 12:17:06;;;;;;;;;;;;;;;;;;5068363;28;43054;-87
2023/04/03 12:19:32;;;;;;;;;;;;;;;;;;5051219;28;42956;-86
2023/04/03 12:21:59;;;;;;;;;;;;;;;;;;5073426;28;42913;-86
2023/04/03 12:24:25;;;;;;;;;;;;;;;;;;5079735;28;42915;-85
2023/04/03 12:26:51;;;;;;;;;;;;;;;;;;5055377;28;43487;-87
2023/04/03 12:29:17;;;;;;;;;;;;;;;;;;5069723;28;43472;-87
2023/04/03 12:31:45;;;;;;;;;;;;;;;;;;5077639;28;63509;-87
2023/04/03 12:34:11;;;;;;;;;;;;;;;;;;5080835;28;43017;-87
2023/04/03 12:36:37;;;;;;;;;;;;;;;;;;5080611;28;42903;-87
2023/04/03 12:39:03;;;;;;;;;;;;;;;;;;5064281;28;43180;-87
2023/04/03 12:41:30;;;;;;;;;;;;;;;;;;5080626;28;42942;-87
2023/04/03 12:43:56;;;;;;;;;;;;;;;;;;5063816;28;42936;-87
2023/04/03 12:46:22;;;;;;;;;;;;;;;;;;5050658;28;44403;-87
2023/04/03 12:48:48;;;;;;;;;;;;;;;;;;5064691;28;43073;-87
2023/04/03 12:51:13;;;;;;;;;;;;;;;;;;5068759;28;43163;-87
2023/04/03 12:53:40;;;;;;;;;;;;;;;;;;5072819;28;42979;-87
2023/04/03 12:56:06;;;;;;;;;;;;;;;;;;5071040;28;43789;-87
2023/04/03 12:58:33;;;;;;;;;;;;;;;;;;5084480;28;42894;-87
2023/04/03 13:00:59;;;;;;;;;;;;;;;;;;5083118;28;43013;-87
2023/04/03 13:03:26;;;;;;;;;;;;;;;;;;5076260;28;42830;-87
2023/04/03 13:05:52;;;;;;;;;;;;;;;;;;5065248;28;43929;-87
2023/04/03 13:08:19;;;;;;;;;;;;;;;;;;5065325;28;43120;-86
2023/04/03 13:10:45;;;;;;;;;;;;;;;;;;5064830;28;45614;-87
2023/04/03 13:13:11;;;;;;;;;;;;;;;;;;5083961;28;42922;-87
2023/04/03 13:15:37;;;;;;;;;;;;;;;;;;5081807;28;42917;-87
2023/04/03 13:18:03;;;;;;;;;;;;;;;;;;5052043;28;43049;-87
2023/04/03 13:20:29;;;;;;;;;;;;;;;;;;5048943;28;45265;-87
2023/04/03 13:22:55;;;;;;;;;;;;;;;;;;5059405;28;43011;-87
2023/04/03 13:25:21;;;;;;;;;;;;;;;;;;5081683;28;42963;-86
2023/04/03 13:27:47;;;;;;;;;;;;;;;;;;5072889;28;42961;-86
2023/04/03 13:30:13;;;;;;;;;;;;;;;;;;5050040;28;44434;-81
2023/04/03 13:32:39;;;;;;;;;;;;;;;;;;5083853;28;42942;-83
2023/04/03 13:35:06;;;;;;;;;;;;;;;;;;5049894;28;44612;-83
2023/04/03 13:37:32;;;;;;;;;;;;;;;;;;5062128;28;42901;-84
2023/04/03 13:39:57;;;;;;;;;;;;;;;;;;5070535;28;43423;-81
2023/04/03 13:42:23;;;;;;;;;;;;;;;;;;5065229;28;43056;-81
2023/04/03 13:44:50;;;;;;;;;;;;;;;;;;5057270;28;43990;-81
2023/04/03 13:47:16;;;;;;;;;;;;;;;;;;5062603;28;42952;-81
2023/04/03 13:49:42;;;;;;;;;;;;;;;;;;5054982;28;43882;-80
2023/04/03 13:52:08;;;;;;;;;;;;;;;;;;5054753;28;42990;-80
2023/04/03 13:54:34;;;;;;;;;;;;;;;;;;5059727;28;43922;-80
2023/04/03 13:57:00;;;;;;;;;;;;;;;;;;5064001;28;43088;-79
2023/04/03 13:59:26;;;;;;;;;;;;;;;;;;5062000;28;43518;-79
2023/04/03 14:01:52;;;;;;;;;;;;;;;;;;5062693;28;42866;-80
2023/04/03 14:04:18;;;;;;;;;;;;;;;;;;5061093;28;42895;-78
2023/04/03 14:06:45;;;;;;;;;;;;;;;;;;5054191;28;42903;-79
2023/04/03 14:09:10;;;;;;;;;;;;;;;;;;5058605;28;43040;-79
2023/04/03 14:11:36;;;;;;;;;;;;;;;;;;5046024;28;43166;-81
2023/04/03 14:14:04;;;;;;;;;;;;;;;;;;5064293;28;42880;-80
2023/04/03 14:16:30;;;;;;;;;;;;;;;;;;5051577;28;42970;-79
2023/04/03 14:18:56;;;;;;;;;;;;;;;;;;5059764;28;43624;-81
2023/04/03 14:21:22;;;;;;;;;;;;;;;;;;5064388;28;43014;-79
2023/04/03 14:23:48;;;;;;;;;;;;;;;;;;5059516;28;43019;-80
2023/04/03 14:26:16;;;;;;;;;;;;;;;;;;5065848;28;42954;-79
2023/04/03 14:28:42;;;;;;;;;;;;;;;;;;5064789;28;44027;-81
2023/04/03 14:31:07;;;;;;;;;;;;;;;;;;5064184;28;43357;-81
2023/04/03 14:33:34;;;;;;;;;;;;;;;;;;5064208;28;43834;-80
2023/04/03 14:36:02;;;;;;;;;;;;;;;;;;5047210;28;42944;-82
2023/04/03 14:38:27;;;;;;;;;;;;;;;;;;5046606;28;44635;-80
2023/04/03 14:40:53;;;;;;;;;;;;;;;;;;5061447;28;42878;-81
2023/04/03 14:43:20;;;;;;;;;;;;;;;;;;5061002;28;43431;-80
2023/04/03 14:45:46;;;;;;;;;;;;;;;;;;5065896;28;42902;-79
2023/04/03 14:48:12;;;;;;;;;;;;;;;;;;5065286;28;43678;-78
2023/04/03 14:50:38;;;;;;;;;;;;;;;;;;5065907;28;42932;-81
2023/04/03 14:53:04;;;;;;;;;;;;;;;;;;5051783;28;43122;-79
2023/04/03 14:55:30;;;;;;;;;;;;;;;;;;5058946;28;43010;-83
2023/04/03 14:57:56;;;;;;;;;;;;;;;;;;5070322;28;43286;-82
2023/04/03 15:00:22;;;;;;;;;;;;;;;;;;5069470;28;42962;-81
2023/04/03 15:02:48;;;;;;;;;;;;;;;;;;5074182;28;42852;-81
2023/04/03 15:05:14;;;;;;;;;;;;;;;;;;5061076;28;42931;-82
2023/04/03 15:07:40;;;;;;;;;;;;;;;;;;5067706;28;43372;-80
2023/04/03 15:10:06;;;;;;;;;;;;;;;;;;5067266;28;42923;-80
2023/04/03 15:12:32;;;;;;;;;;;;;;;;;;5054588;28;42902;-86
2023/04/03 15:14:57;;;;;;;;;;;;;;;;;;5066126;28;42990;-84
2023/04/03 15:17:23;;;;;;;;;;;;;;;;;;5067404;28;42769;-82
2023/04/03 15:19:49;;;;;;;;;;;;;;;;;;5067011;28;43672;-81
2023/04/03 15:22:15;;;;;;;;;;;;;;;;;;5065629;28;43458;-89
2023/04/03 15:24:41;;;;;;;;;;;;;;;;;;5059922;28;42944;-80
2023/04/03 15:27:07;;;;;;;;;;;;;;;;;;5066418;28;42949;-83
2023/04/03 15:29:33;;;;;;;;;;;;;;;;;;5057449;28;42819;-81
2023/04/03 15:31:59;;;;;;;;;;;;;;;;;;5064202;28;43035;-80
2023/04/03 15:34:25;;;;;;;;;;;;;;;;;;5060199;28;43054;-87
2023/04/03 15:36:52;;;;;;;;;;;;;;;;;;5062055;28;42879;-85
2023/04/03 15:39:18;;;;;;;;;;;;;;;;;;5062629;28;42919;-80
2023/04/03 15:41:45;;;;;;;;;;;;;;;;;;5063773;28;44744;-80
2023/04/03 15:44:12;;;;;;;;;;;;;;;;;;5049901;28;43112;-82
2023/04/03 15:46:38;;;;;;;;;;;;;;;;;;5058938;28;43202;-81
2023/04/03 15:49:04;;;;;;;;;;;;;;;;;;5047153;28;42887;-83
2023/04/03 15:51:30;;;;;;;;;;;;;;;;;;5067848;28;44486;-80
2023/04/03 15:53:56;;;;;;;;;;;;;;;;;;5078901;28;42942;-81
2023/04/03 15:56:22;;;;;;;;;;;;;;;;;;5059226;28;43988;-83
2023/04/03 15:58:47;;;;;;;;;;;;;;;;;;5074750;28;43827;-83
2023/04/03 16:01:13;;;;;;;;;;;;;;;;;;5069719;28;43587;-83
2023/04/03 16:03:44;;;;;;;;;;;;;;;;;;5068972;28;42918;-81
2023/04/03 16:06:10;;;;;;;;;;;;;;;;;;5063420;28;43498;-77
2023/04/03 16:08:36;;;;;;;;;;;;;;;;;;5070265;28;43034;-79
2023/04/03 16:11:02;;;;;;;;;;;;;;;;;;5069554;28;43416;-79
2023/04/03 16:13:28;;;;;;;;;;;;;;;;;;5072404;28;42920;-76
2023/04/03 16:15:54;;;;;;;;;;;;;;;;;;5067733;28;43968;-76
2023/04/03 16:18:20;;;;;;;;;;;;;;;;;;5070717;28;43018;-77
2023/04/03 16:20:46;;;;;;;;;;;;;;;;;;5064152;28;43627;-79
2023/04/03 16:23:12;;;;;;;;;;;;;;;;;;5068475;28;43172;-78
2023/04/03 16:25:38;;;;;;;;;;;;;;;;;;5064368;28;43716;-79
2023/04/03 16:28:04;;;;;;;;;;;;;;;;;;5070173;28;43039;-78
2023/04/03 16:30:30;;;;;;;;;;;;;;;;;;5063719;28;43232;-78
2023/04/03 16:32:55;;;;;;;;;;;;;;;;;;5052287;28;42985;-79
2023/04/03 16:35:21;;;;;;;;;;;;;;;;;;5052578;28;44322;-79
2023/04/03 16:37:47;;;;;;;;;;;;;;;;;;5059750;28;43279;-78
2023/04/03 16:40:13;;;;;;;;;;;;;;;;;;5067767;28;43038;-79
2023/04/03 16:42:39;;;;;;;;;;;;;;;;;;5070323;28;42994;-78